sensor_id;sensor_type;location;lat;lon;timestamp;pressure;altitude;pressure_sealevel;temperature;humidity
61757;BME280;57225;61.460;24.060;2022-12-01T00:01:56;102378.31;;;-0.66;100.00
61757;BME280;57225;61.460;24.060;2022-12-01T00:04:40;102386.53;;;-0.66;100.00
61757;BME280;57225;61.460;24.060;2022-12-01T00:07:25;102379.97;;;-0.65;100.00
61757;BME280;57225;61.460;24.060;2022-12-01T00:10:10;102381.59;;;-0.64;100.00
61757;BME280;57225;61.460;24.060;2022-12-01T00:13:10;102381.88;;;-0.60;100.00
61757;BME280;57225;61.460;24.060;2022-12-01T00:15:54;102380.47;;;-0.63;100.00
61757;BME280;57225;61.460;24.060;2022-12-01T00:18:39;102373.38;;;-0.59;100.00
61757;BME280;57225;61.460;24.060;2022-12-01T00:21:24;102390.91;;;-0.60;100.00
61757;BME280;57225;61.460;24.060;2022-12-01T00:24:09;102384.88;;;-0.62;100.00
61757;BME280;57225;61.460;24.060;2022-12-01T00:26:54;102390.34;;;-0.62;100.00
61757;BME280;57225;61.460;24.060;2022-12-01T00:29:39;102382.44;;;-0.63;100.00
61757;BME280;57225;61.460;24.060;2022-12-01T00:32:23;102390.34;;;-0.62;100.00
61757;BME280;57225;61.460;24.060;2022-12-01T00:35:08;102392.81;;;-0.60;100.00
61757;BME280;57225;61.460;24.060;2022-12-01T00:37:53;102393.66;;;-0.60;100.00
61757;BME280;57225;61.460;24.060;2022-12-01T00:40:37;102401.88;;;-0.60;100.00
61757;BME280;57225;61.460;24.060;2022-12-01T00:43:21;102398.28;;;-0.60;100.00
61757;BME280;57225;61.460;24.060;2022-12-01T00:46:07;102392.81;;;-0.60;100.00
61757;BME280;57225;61.460;24.060;2022-12-01T00:48:51;102393.09;;;-0.57;100.00
61757;BME280;57225;61.460;24.060;2022-12-01T00:51:36;102395.28;;;-0.59;100.00
61757;BME280;57225;61.460;24.060;2022-12-01T00:54:20;102395.28;;;-0.59;100.00
61757;BME280;57225;61.460;24.060;2022-12-01T00:57:05;102396.94;;;-0.58;100.00
61757;BME280;57225;61.460;24.060;2022-12-01T00:59:49;102392.56;;;-0.59;100.00
61757;BME280;57225;61.460;24.060;2022-12-01T01:02:34;102389.25;;;-0.61;100.00
61757;BME280;57225;61.460;24.060;2022-12-01T01:05:18;102394.72;;;-0.61;100.00
61757;BME280;57225;61.460;24.060;2022-12-01T01:08:13;102382.69;;;-0.70;100.00
61757;BME280;57225;61.460;24.060;2022-12-01T01:10:59;102375.84;;;-0.67;100.00
61757;BME280;57225;61.460;24.060;2022-12-01T01:13:44;102390.59;;;-0.68;100.00
61757;BME280;57225;61.460;24.060;2022-12-01T01:16:28;102385.13;;;-0.73;100.00
61757;BME280;57225;61.460;24.060;2022-12-01T01:19:12;102388.69;;;-0.73;100.00
61757;BME280;57225;61.460;24.060;2022-12-01T01:21:57;102381.56;;;-0.74;100.00
61757;BME280;57225;61.460;24.060;2022-12-01T01:24:41;102386.53;;;-0.71;100.00
61757;BME280;57225;61.460;24.060;2022-12-01T01:27:26;102391.44;;;-0.68;100.00
61757;BME280;57225;61.460;24.060;2022-12-01T01:30:10;102392.25;;;-0.67;100.00
61757;BME280;57225;61.460;24.060;2022-12-01T01:32:55;102389.78;;;-0.69;100.00
61757;BME280;57225;61.460;24.060;2022-12-01T01:35:39;102390.09;;;-0.65;100.00
61757;BME280;57225;61.460;24.060;2022-12-01T01:38:24;102384.03;;;-0.62;100.00
61757;BME280;57225;61.460;24.060;2022-12-01T01:41:09;102387.06;;;-0.64;100.00
61757;BME280;57225;61.460;24.060;2022-12-01T01:43:56;102387.59;;;-0.67;100.00
61757;BME280;57225;61.460;24.060;2022-12-01T01:46:41;102390.91;;;-0.65;100.00
61757;BME280;57225;61.460;24.060;2022-12-01T01:49:25;102389.53;;;-0.62;100.00
61757;BME280;57225;61.460;24.060;2022-12-01T01:52:10;102388.44;;;-0.61;100.00
61757;BME280;57225;61.460;24.060;2022-12-01T01:54:54;102391.16;;;-0.61;100.00
61757;BME280;57225;61.460;24.060;2022-12-01T01:57:39;102388.16;;;-0.60;100.00
61757;BME280;57225;61.460;24.060;2022-12-01T02:00:25;102392.56;;;-0.59;100.00
61757;BME280;57225;61.460;24.060;2022-12-01T02:03:13;102394.72;;;-0.61;100.00
61757;BME280;57225;61.460;24.060;2022-12-01T02:05:59;102395.81;;;-0.62;100.00
61757;BME280;57225;61.460;24.060;2022-12-01T02:08:43;102390.91;;;-0.65;100.00
61757;BME280;57225;61.460;24.060;2022-12-01T02:11:44;102392.25;;;-0.67;100.00
61757;BME280;57225;61.460;24.060;2022-12-01T02:17:51;102399.13;;;-0.65;100.00
61757;BME280;57225;61.460;24.060;2022-12-01T02:27:06;102390.34;;;-0.67;100.00
61757;BME280;57225;61.460;24.060;2022-12-01T02:29:57;102388.44;;;-0.61;100.00
61757;BME280;57225;61.460;24.060;2022-12-01T02:41:23;102393.09;;;-0.67;100.00
61757;BME280;57225;61.460;24.060;2022-12-01T02:44:40;102388.69;;;-0.68;100.00
61757;BME280;57225;61.460;24.060;2022-12-01T02:47:25;102394.19;;;-0.63;100.00
61757;BME280;57225;61.460;24.060;2022-12-01T02:50:10;102393.91;;;-0.66;100.00
61757;BME280;57225;61.460;24.060;2022-12-01T02:52:55;102393.66;;;-0.70;100.00
61757;BME280;57225;61.460;24.060;2022-12-01T02:55:55;102387.59;;;-0.72;100.00
61757;BME280;57225;61.460;24.060;2022-12-01T02:58:43;102394.19;;;-0.68;100.00
61757;BME280;57225;61.460;24.060;2022-12-01T03:07:48;102382.13;;;-0.72;100.00
61757;BME280;57225;61.460;24.060;2022-12-01T03:16:50;102389.81;;;-0.64;100.00
61757;BME280;57225;61.460;24.060;2022-12-01T03:19:40;102384.34;;;-0.64;100.00
61757;BME280;57225;61.460;24.060;2022-12-01T03:22:36;102390.34;;;-0.62;100.00
61757;BME280;57225;61.460;24.060;2022-12-01T03:25:23;102391.16;;;-0.61;100.00
61757;BME280;57225;61.460;24.060;2022-12-01T03:28:11;102392.00;;;-0.61;100.00
61757;BME280;57225;61.460;24.060;2022-12-01T03:30:59;102390.34;;;-0.62;100.00
61757;BME280;57225;61.460;24.060;2022-12-01T03:33:50;102377.75;;;-0.68;100.00
61757;BME280;57225;61.460;24.060;2022-12-01T03:36:39;102390.09;;;-0.65;100.00
61757;BME280;57225;61.460;24.060;2022-12-01T03:39:28;102379.13;;;-0.60;100.00
61757;BME280;57225;61.460;24.060;2022-12-01T03:42:20;102383.78;;;-0.61;100.00
61757;BME280;57225;61.460;24.060;2022-12-01T03:45:10;102375.56;;;-0.61;100.00
61757;BME280;57225;61.460;24.060;2022-12-01T03:47:58;102376.38;;;-0.60;100.00
61757;BME280;57225;61.460;24.060;2022-12-01T03:53:52;102378.84;;;-0.69;100.00
61757;BME280;57225;61.460;24.060;2022-12-01T03:56:45;102380.22;;;-0.71;100.00
61757;BME280;57225;61.460;24.060;2022-12-01T03:59:32;102377.22;;;-0.70;100.00
61757;BME280;57225;61.460;24.060;2022-12-01T04:02:19;102382.13;;;-0.67;100.00
61757;BME280;57225;61.460;24.060;2022-12-01T04:05:04;102390.91;;;-0.65;100.00
61757;BME280;57225;61.460;24.060;2022-12-01T04:07:48;102389.53;;;-0.67;100.00
61757;BME280;57225;61.460;24.060;2022-12-01T04:10:33;102388.16;;;-0.60;100.00
61757;BME280;57225;61.460;24.060;2022-12-01T04:13:17;102387.59;;;-0.62;100.00
61757;BME280;57225;61.460;24.060;2022-12-01T04:16:08;102389.25;;;-0.56;100.00
61757;BME280;57225;61.460;24.060;2022-12-01T04:18:52;102380.25;;;-0.51;100.00
61757;BME280;57225;61.460;24.060;2022-12-01T04:21:37;102392.81;;;-0.50;100.00
61757;BME280;57225;61.460;24.060;2022-12-01T04:24:21;102388.47;;;-0.51;100.00
61757;BME280;57225;61.460;24.060;2022-12-01T04:27:06;102383.81;;;-0.51;100.00
61757;BME280;57225;61.460;24.060;2022-12-01T04:29:50;102388.72;;;-0.53;100.00
61757;BME280;57225;61.460;24.060;2022-12-01T04:32:39;102389.28;;;-0.51;100.00
61757;BME280;57225;61.460;24.060;2022-12-01T04:35:24;102390.63;;;-0.43;100.00
61757;BME280;57225;61.460;24.060;2022-12-01T04:38:08;102397.50;;;-0.41;100.00
61757;BME280;57225;61.460;24.060;2022-12-01T04:40:53;102389.81;;;-0.44;100.00
61757;BME280;57225;61.460;24.060;2022-12-01T04:43:37;102385.44;;;-0.50;100.00
61757;BME280;57225;61.460;24.060;2022-12-01T04:46:23;102396.38;;;-0.55;100.00
61757;BME280;57225;61.460;24.060;2022-12-01T04:49:08;102387.59;;;-0.57;100.00
61757;BME280;57225;61.460;24.060;2022-12-01T04:51:51;102402.69;;;-0.59;100.00
61757;BME280;57225;61.460;24.060;2022-12-01T04:54:36;102403.25;;;-0.57;100.00
61757;BME280;57225;61.460;24.060;2022-12-01T04:57:20;102395.28;;;-0.49;100.00
61757;BME280;57225;61.460;24.060;2022-12-01T05:00:05;102402.69;;;-0.54;100.00
61757;BME280;57225;61.460;24.060;2022-12-01T05:02:56;102398.59;;;-0.52;100.00
61757;BME280;57225;61.460;24.060;2022-12-01T05:05:40;102402.97;;;-0.51;100.00
61757;BME280;57225;61.460;24.060;2022-12-01T05:08:24;102396.94;;;-0.53;100.00
61757;BME280;57225;61.460;24.060;2022-12-01T05:11:11;102404.06;;;-0.52;100.00
61757;BME280;57225;61.460;24.060;2022-12-01T05:13:55;102404.59;;;-0.50;100.00
61757;BME280;57225;61.460;24.060;2022-12-01T05:16:40;102396.13;;;-0.48;100.00
61757;BME280;57225;61.460;24.060;2022-12-01T05:19:24;102399.13;;;-0.50;100.00
61757;BME280;57225;61.460;24.060;2022-12-01T05:22:27;102402.97;;;-0.51;100.00
61757;BME280;57225;61.460;24.060;2022-12-01T05:25:12;102400.22;;;-0.56;100.00
61757;BME280;57225;61.460;24.060;2022-12-01T05:27:56;102404.34;;;-0.53;100.00
61757;BME280;57225;61.460;24.060;2022-12-01T05:30:41;102409.81;;;-0.53;100.00
61757;BME280;57225;61.460;24.060;2022-12-01T05:33:27;102410.06;;;-0.55;100.00
61757;BME280;57225;61.460;24.060;2022-12-01T05:36:11;102412.00;;;-0.55;100.00
61757;BME280;57225;61.460;24.060;2022-12-01T05:38:56;102410.38;;;-0.51;100.00
61757;BME280;57225;61.460;24.060;2022-12-01T05:41:40;102418.28;;;-0.50;100.00
61757;BME280;57225;61.460;24.060;2022-12-01T05:44:25;102422.69;;;-0.49;100.00
61757;BME280;57225;61.460;24.060;2022-12-01T05:47:09;102419.94;;;-0.54;100.00
61757;BME280;57225;61.460;24.060;2022-12-01T05:49:54;102422.41;;;-0.52;100.00
61757;BME280;57225;61.460;24.060;2022-12-01T05:52:38;102418.84;;;-0.53;100.00
61757;BME280;57225;61.460;24.060;2022-12-01T05:55:22;102414.47;;;-0.54;100.00
61757;BME280;57225;61.460;24.060;2022-12-01T05:58:07;102423.78;;;-0.55;100.00
61757;BME280;57225;61.460;24.060;2022-12-01T06:00:52;102427.59;;;-0.56;100.00
61757;BME280;57225;61.460;24.060;2022-12-01T06:03:36;102432.53;;;-0.53;100.00
61757;BME280;57225;61.460;24.060;2022-12-01T06:06:21;102424.59;;;-0.54;100.00
61757;BME280;57225;61.460;24.060;2022-12-01T06:09:05;102425.41;;;-0.59;100.00
61757;BME280;57225;61.460;24.060;2022-12-01T06:11:51;102434.16;;;-0.67;100.00
61757;BME280;57225;61.460;24.060;2022-12-01T06:14:35;102431.97;;;-0.65;100.00
61757;BME280;57225;61.460;24.060;2022-12-01T06:17:20;102434.16;;;-0.67;100.00
61757;BME280;57225;61.460;24.060;2022-12-01T06:20:05;102434.72;;;-0.70;100.00
61757;BME280;57225;61.460;24.060;2022-12-01T06:22:49;102436.34;;;-0.74;100.00
61757;BME280;57225;61.460;24.060;2022-12-01T06:25:33;102441.28;;;-0.71;100.00
61757;BME280;57225;61.460;24.060;2022-12-01T06:28:18;102445.13;;;-0.67;100.00
61757;BME280;57225;61.460;24.060;2022-12-01T06:31:02;102439.63;;;-0.72;100.00
61757;BME280;57225;61.460;24.060;2022-12-01T06:33:47;102452.50;;;-0.72;100.00
61757;BME280;57225;61.460;24.060;2022-12-01T06:36:32;102455.50;;;-0.74;100.00
61757;BME280;57225;61.460;24.060;2022-12-01T06:39:16;102456.31;;;-0.68;100.00
61757;BME280;57225;61.460;24.060;2022-12-01T06:42:01;102456.06;;;-0.67;100.00
61757;BME280;57225;61.460;24.060;2022-12-01T06:44:45;102449.50;;;-0.66;100.00
61757;BME280;57225;61.460;24.060;2022-12-01T06:47:29;102452.25;;;-0.61;100.00
61757;BME280;57225;61.460;24.060;2022-12-01T06:50:14;102454.72;;;-0.59;100.00
61757;BME280;57225;61.460;24.060;2022-12-01T06:52:58;102468.16;;;-0.58;100.00
61757;BME280;57225;61.460;24.060;2022-12-01T06:55:42;102459.94;;;-0.58;100.00
61757;BME280;57225;61.460;24.060;2022-12-01T06:58:27;102464.84;;;-0.60;100.00
61757;BME280;57225;61.460;24.060;2022-12-01T07:01:11;102464.28;;;-0.57;100.00
61757;BME280;57225;61.460;24.060;2022-12-01T07:03:56;102462.63;;;-0.63;100.00
61757;BME280;57225;61.460;24.060;2022-12-01T07:06:40;102468.69;;;-0.56;100.00
61757;BME280;57225;61.460;24.060;2022-12-01T07:09:25;102465.69;;;-0.59;100.00
61757;BME280;57225;61.460;24.060;2022-12-01T07:12:09;102478.28;;;-0.58;100.00
61757;BME280;57225;61.460;24.060;2022-12-01T07:14:54;102474.72;;;-0.54;100.00
61757;BME280;57225;61.460;24.060;2022-12-01T07:17:38;102470.34;;;-0.55;100.00
61757;BME280;57225;61.460;24.060;2022-12-01T07:20:22;102478.03;;;-0.52;100.00
61757;BME280;57225;61.460;24.060;2022-12-01T07:23:07;102473.06;;;-0.55;100.00
61757;BME280;57225;61.460;24.060;2022-12-01T07:26:02;102471.72;;;-0.57;100.00
61757;BME280;57225;61.460;24.060;2022-12-01T07:28:47;102482.94;;;-0.49;100.00
61757;BME280;57225;61.460;24.060;2022-12-01T07:31:31;102474.72;;;-0.49;100.00
61757;BME280;57225;61.460;24.060;2022-12-01T07:34:15;102478.03;;;-0.47;100.00
61757;BME280;57225;61.460;24.060;2022-12-01T07:37:00;102468.97;;;-0.47;100.00
61757;BME280;57225;61.460;24.060;2022-12-01T07:39:44;102484.06;;;-0.45;100.00
61757;BME280;57225;61.460;24.060;2022-12-01T07:42:29;102484.84;;;-0.44;100.00
61757;BME280;57225;61.460;24.060;2022-12-01T07:45:14;102490.63;;;-0.41;100.00
61757;BME280;57225;61.460;24.060;2022-12-01T07:47:58;102489.00;;;-0.36;100.00
61757;BME280;57225;61.460;24.060;2022-12-01T07:50:42;102492.84;;;-0.32;100.00
61757;BME280;57225;61.460;24.060;2022-12-01T07:53:27;102495.59;;;-0.27;100.00
61757;BME280;57225;61.460;24.060;2022-12-01T07:56:11;102502.69;;;-0.31;100.00
61757;BME280;57225;61.460;24.060;2022-12-01T07:58:56;102500.78;;;-0.31;100.00
61757;BME280;57225;61.460;24.060;2022-12-01T08:01:40;102491.75;;;-0.26;100.00
61757;BME280;57225;61.460;24.060;2022-12-01T08:04:25;102496.97;;;-0.20;100.00
61757;BME280;57225;61.460;24.060;2022-12-01T08:07:09;102494.50;;;-0.21;100.00
61757;BME280;57225;61.460;24.060;2022-12-01T08:09:54;102490.66;;;-0.20;100.00
61757;BME280;57225;61.460;24.060;2022-12-01T08:12:38;102492.84;;;-0.17;100.00
61757;BME280;57225;61.460;24.060;2022-12-01T08:15:22;102496.41;;;-0.17;100.00
61757;BME280;57225;61.460;24.060;2022-12-01T08:18:07;102492.31;;;-0.14;100.00
61757;BME280;57225;61.460;24.060;2022-12-01T08:20:55;102501.38;;;-0.14;100.00
61757;BME280;57225;61.460;24.060;2022-12-01T08:23:41;102502.72;;;-0.11;100.00
61757;BME280;57225;61.460;24.060;2022-12-01T08:26:26;102499.72;;;-0.10;100.00
61757;BME280;57225;61.460;24.060;2022-12-01T08:29:10;102501.63;;;-0.10;100.00
61757;BME280;57225;61.460;24.060;2022-12-01T08:31:56;102495.31;;;-0.11;100.00
61757;BME280;57225;61.460;24.060;2022-12-01T08:34:41;102501.09;;;-0.07;100.00
61757;BME280;57225;61.460;24.060;2022-12-01T08:37:25;102491.75;;;-0.11;100.00
61757;BME280;57225;61.460;24.060;2022-12-01T08:40:10;102500.53;;;-0.09;100.00
61757;BME280;57225;61.460;24.060;2022-12-01T08:42:55;102492.31;;;-0.14;100.00
61757;BME280;57225;61.460;24.060;2022-12-01T08:45:39;102510.41;;;-0.08;100.00
61757;BME280;57225;61.460;24.060;2022-12-01T08:48:24;102507.66;;;-0.08;100.00
61757;BME280;57225;61.460;24.060;2022-12-01T08:51:11;102507.66;;;-0.08;100.00
61757;BME280;57225;61.460;24.060;2022-12-01T08:53:57;102509.59;;;-0.09;100.00
61757;BME280;57225;61.460;24.060;2022-12-01T08:56:44;102511.50;;;-0.04;100.00
61757;BME280;57225;61.460;24.060;2022-12-01T08:59:28;102513.97;;;0.03;100.00
61757;BME280;57225;61.460;24.060;2022-12-01T09:02:14;102508.50;;;0.08;100.00
61757;BME280;57225;61.460;24.060;2022-12-01T09:04:59;102519.75;;;0.11;100.00
61757;BME280;57225;61.460;24.060;2022-12-01T09:07:43;102521.09;;;0.14;100.00
61757;BME280;57225;61.460;24.060;2022-12-01T09:10:51;102519.19;;;0.14;100.00
61757;BME280;57225;61.460;24.060;2022-12-01T09:13:37;102520.28;;;0.13;100.00
61757;BME280;57225;61.460;24.060;2022-12-01T09:16:22;102515.34;;;0.15;100.00
61757;BME280;57225;61.460;24.060;2022-12-01T09:19:06;102520.31;;;0.18;100.00
61757;BME280;57225;61.460;24.060;2022-12-01T09:21:51;102518.09;;;0.20;100.00
61757;BME280;57225;61.460;24.060;2022-12-01T09:24:36;102513.16;;;0.22;100.00
61757;BME280;57225;61.460;24.060;2022-12-01T09:27:20;102522.19;;;0.28;100.00
61757;BME280;57225;61.460;24.060;2022-12-01T09:30:05;102519.47;;;0.28;100.00
61757;BME280;57225;61.460;24.060;2022-12-01T09:32:51;102519.75;;;0.31;100.00
61757;BME280;57225;61.460;24.060;2022-12-01T09:35:35;102515.88;;;0.32;100.00
61757;BME280;57225;61.460;24.060;2022-12-01T09:38:19;102522.50;;;0.31;100.00
61757;BME280;57225;61.460;24.060;2022-12-01T09:41:18;102517.81;;;0.37;100.00
61757;BME280;57225;61.460;24.060;2022-12-01T09:47:17;102520.56;;;0.37;100.00
61757;BME280;57225;61.460;24.060;2022-12-01T09:50:12;102513.13;;;0.32;100.00
61757;BME280;57225;61.460;24.060;2022-12-01T09:53:01;102520.56;;;0.42;100.00
61757;BME280;57225;61.460;24.060;2022-12-01T09:55:45;102515.91;;;0.43;100.00
61757;BME280;57225;61.460;24.060;2022-12-01T09:58:32;102513.69;;;0.45;100.00
61757;BME280;57225;61.460;24.060;2022-12-01T10:01:19;102515.88;;;0.53;100.00
61757;BME280;57225;61.460;24.060;2022-12-01T10:04:36;102515.84;;;0.58;100.00
61757;BME280;57225;61.460;24.060;2022-12-01T10:07:30;102508.16;;;0.60;100.00
61757;BME280;57225;61.460;24.060;2022-12-01T10:10:27;102508.72;;;0.62;100.00
61757;BME280;57225;61.460;24.060;2022-12-01T10:13:22;102505.44;;;0.60;100.00
61757;BME280;57225;61.460;24.060;2022-12-01T10:16:12;102487.59;;;0.62;100.00
61757;BME280;57225;61.460;24.060;2022-12-01T10:19:33;102512.00;;;0.74;100.00
61757;BME280;57225;61.460;24.060;2022-12-01T10:26:17;102506.00;;;0.47;100.00
61757;BME280;57225;61.460;24.060;2022-12-01T10:28:52;102505.19;;;0.56;100.00
61757;BME280;57225;61.460;24.060;2022-12-01T10:34:39;102509.00;;;0.55;100.00
61757;BME280;57225;61.460;24.060;2022-12-01T10:37:26;102507.91;;;0.51;100.00
61757;BME280;57225;61.460;24.060;2022-12-01T10:40:13;102515.31;;;0.46;100.00
61757;BME280;57225;61.460;24.060;2022-12-01T10:42:58;102511.22;;;0.48;100.00
61757;BME280;57225;61.460;24.060;2022-12-01T10:45:43;102519.44;;;0.53;100.00
61757;BME280;57225;61.460;24.060;2022-12-01T10:48:28;102520.28;;;0.44;100.00
61757;BME280;57225;61.460;24.060;2022-12-01T10:51:15;102517.53;;;0.44;100.00
61757;BME280;57225;61.460;24.060;2022-12-01T10:54:10;102507.69;;;0.37;100.00
61757;BME280;57225;61.460;24.060;2022-12-01T10:56:55;102519.72;;;0.42;100.00
61757;BME280;57225;61.460;24.060;2022-12-01T11:02:31;102527.69;;;0.48;100.00
61757;BME280;57225;61.460;24.060;2022-12-01T11:05:29;102530.97;;;0.50;100.00
61757;BME280;57225;61.460;24.060;2022-12-01T11:08:24;102517.25;;;0.50;100.00
61757;BME280;57225;61.460;24.060;2022-12-01T11:11:37;102529.03;;;0.51;100.00
61757;BME280;57225;61.460;24.060;2022-12-01T11:17:33;102529.03;;;0.51;100.00
61757;BME280;57225;61.460;24.060;2022-12-01T11:23:22;102522.19;;;0.48;100.00
61757;BME280;57225;61.460;24.060;2022-12-01T11:26:13;102520.53;;;0.52;100.00
61757;BME280;57225;61.460;24.060;2022-12-01T11:29:27;102518.09;;;0.35;100.00
61757;BME280;57225;61.460;24.060;2022-12-01T11:35:16;102521.38;;;0.43;100.00
61757;BME280;57225;61.460;24.060;2022-12-01T11:38:03;102525.47;;;0.45;100.00
61757;BME280;57225;61.460;24.060;2022-12-01T11:40:54;102520.81;;;0.46;99.72
61757;BME280;57225;61.460;24.060;2022-12-01T11:43:39;102521.38;;;0.43;100.00
61757;BME280;57225;61.460;24.060;2022-12-01T11:46:41;102522.47;;;0.47;100.00
61757;BME280;57225;61.460;24.060;2022-12-01T11:49:28;102519.19;;;0.39;100.00
61757;BME280;57225;61.460;24.060;2022-12-01T11:52:33;102509.28;;;0.38;100.00
61757;BME280;57225;61.460;24.060;2022-12-01T11:55:22;102517.53;;;0.33;100.00
61757;BME280;57225;61.460;24.060;2022-12-01T11:58:07;102520.84;;;0.35;99.86
61757;BME280;57225;61.460;24.060;2022-12-01T12:00:54;102522.47;;;0.26;99.68
61757;BME280;57225;61.460;24.060;2022-12-01T12:03:50;102532.34;;;0.22;100.00
61757;BME280;57225;61.460;24.060;2022-12-01T12:06:47;102530.16;;;0.24;100.00
61757;BME280;57225;61.460;24.060;2022-12-01T12:12:45;102529.88;;;0.21;100.00
61757;BME280;57225;61.460;24.060;2022-12-01T12:18:45;102520.84;;;0.00;100.00
61757;BME280;57225;61.460;24.060;2022-12-01T12:21:43;102511.78;;;-0.01;100.00
61757;BME280;57225;61.460;24.060;2022-12-01T12:28:04;102518.34;;;-0.17;100.00
61757;BME280;57225;61.460;24.060;2022-12-01T12:37:18;102506.56;;;-0.27;100.00
61757;BME280;57225;61.460;24.060;2022-12-01T12:40:25;102509.84;;;-0.25;100.00
61757;BME280;57225;61.460;24.060;2022-12-01T12:46:13;102510.38;;;-0.28;100.00
61757;BME280;57225;61.460;24.060;2022-12-01T12:52:19;102510.38;;;-0.33;100.00
61757;BME280;57225;61.460;24.060;2022-12-01T12:55:31;102518.56;;;-0.44;100.00
61757;BME280;57225;61.460;24.060;2022-12-01T12:58:20;102509.81;;;-0.46;100.00
61757;BME280;57225;61.460;24.060;2022-12-01T13:01:10;102514.47;;;-0.46;100.00
61757;BME280;57225;61.460;24.060;2022-12-01T13:04:03;102522.09;;;-0.53;100.00
61757;BME280;57225;61.460;24.060;2022-12-01T13:06:54;102519.94;;;-0.51;100.00
61757;BME280;57225;61.460;24.060;2022-12-01T13:09:49;102524.03;;;-0.49;100.00
61757;BME280;57225;61.460;24.060;2022-12-01T13:12:40;102530.59;;;-0.50;100.00
61757;BME280;57225;61.460;24.060;2022-12-01T13:15:27;102529.53;;;-0.44;100.00
61757;BME280;57225;61.460;24.060;2022-12-01T13:18:27;102530.91;;;-0.46;100.00
61757;BME280;57225;61.460;24.060;2022-12-01T13:21:19;102534.97;;;-0.59;100.00
61757;BME280;57225;61.460;24.060;2022-12-01T13:24:05;102531.94;;;-0.62;100.00
61757;BME280;57225;61.460;24.060;2022-12-01T13:26:56;102533.56;;;-0.61;100.00
61757;BME280;57225;61.460;24.060;2022-12-01T13:29:50;102539.34;;;-0.58;100.00
61757;BME280;57225;61.460;24.060;2022-12-01T13:32:37;102527.28;;;-0.57;100.00
61757;BME280;57225;61.460;24.060;2022-12-01T13:35:35;102532.22;;;-0.64;100.00
61757;BME280;57225;61.460;24.060;2022-12-01T13:38:34;102528.38;;;-0.63;100.00
61757;BME280;57225;61.460;24.060;2022-12-01T13:41:26;102530.56;;;-0.70;100.00
61757;BME280;57225;61.460;24.060;2022-12-01T13:45:14;102524.28;;;-0.60;100.00
61757;BME280;57225;61.460;24.060;2022-12-01T13:47:39;102528.91;;;-0.71;100.00
61757;BME280;57225;61.460;24.060;2022-12-01T13:53:36;102533.25;;;-0.75;100.00
61757;BME280;57225;61.460;24.060;2022-12-01T13:56:25;102534.38;;;-0.76;100.00
61757;BME280;57225;61.460;24.060;2022-12-01T13:59:39;102529.69;;;-0.75;100.00
61757;BME280;57225;61.460;24.060;2022-12-01T14:02:32;102523.69;;;-0.72;100.00
61757;BME280;57225;61.460;24.060;2022-12-01T14:08:21;102523.44;;;-0.71;100.00
61757;BME280;57225;61.460;24.060;2022-12-01T14:11:18;102511.88;;;-0.83;100.00
61757;BME280;57225;61.460;24.060;2022-12-01T14:14:11;102527.25;;;-0.72;100.00
61757;BME280;57225;61.460;24.060;2022-12-01T14:17:00;102531.34;;;-0.69;100.00
61757;BME280;57225;61.460;24.060;2022-12-01T14:19:49;102530.56;;;-0.70;100.00
61757;BME280;57225;61.460;24.060;2022-12-01T14:22:42;102531.09;;;-0.68;100.00
61757;BME280;57225;61.460;24.060;2022-12-01T14:25:28;102534.91;;;-0.69;100.00
61757;BME280;57225;61.460;24.060;2022-12-01T14:28:15;102530.00;;;-0.72;100.00
61757;BME280;57225;61.460;24.060;2022-12-01T14:31:04;102529.44;;;-0.74;100.00
61757;BME280;57225;61.460;24.060;2022-12-01T14:36:51;102529.44;;;-0.74;100.00
61757;BME280;57225;61.460;24.060;2022-12-01T14:39:40;102533.00;;;-0.68;100.00
61757;BME280;57225;61.460;24.060;2022-12-01T14:45:55;102532.72;;;-0.72;100.00
61757;BME280;57225;61.460;24.060;2022-12-01T14:48:45;102535.16;;;-0.75;100.00
61757;BME280;57225;61.460;24.060;2022-12-01T14:51:30;102530.81;;;-0.76;100.00
61757;BME280;57225;61.460;24.060;2022-12-01T14:54:29;102525.34;;;-0.76;100.00
61757;BME280;57225;61.460;24.060;2022-12-01T14:57:15;102525.84;;;-0.79;100.00
61757;BME280;57225;61.460;24.060;2022-12-01T15:00:12;102530.50;;;-0.80;100.00
61757;BME280;57225;61.460;24.060;2022-12-01T15:03:00;102522.28;;;-0.80;100.00
61757;BME280;57225;61.460;24.060;2022-12-01T15:05:45;102524.50;;;-0.77;100.00
61757;BME280;57225;61.460;24.060;2022-12-01T15:08:31;102535.47;;;-0.77;100.00
61757;BME280;57225;61.460;24.060;2022-12-01T15:11:22;102541.75;;;-0.76;100.00
61757;BME280;57225;61.460;24.060;2022-12-01T15:14:47;102518.16;;;-0.88;100.00
61757;BME280;57225;61.460;24.060;2022-12-01T15:17:33;102530.22;;;-0.84;100.00
61757;BME280;57225;61.460;24.060;2022-12-01T15:20:36;102529.34;;;-0.94;100.00
61757;BME280;57225;61.460;24.060;2022-12-01T15:23:21;102533.47;;;-0.92;100.00
61757;BME280;57225;61.460;24.060;2022-12-01T15:26:14;102528.81;;;-0.91;100.00
61757;BME280;57225;61.460;24.060;2022-12-01T15:32:13;102524.44;;;-0.87;100.00
61757;BME280;57225;61.460;24.060;2022-12-01T15:34:59;102521.44;;;-0.86;100.00
61757;BME280;57225;61.460;24.060;2022-12-01T15:37:48;102521.72;;;-0.87;100.00
61757;BME280;57225;61.460;24.060;2022-12-01T15:40:33;102497.53;;;-1.05;100.00
61757;BME280;57225;61.460;24.060;2022-12-01T15:43:18;102511.81;;;-0.93;100.00
61757;BME280;57225;61.460;24.060;2022-12-01T15:46:14;102514.28;;;-0.97;100.00
61757;BME280;57225;61.460;24.060;2022-12-01T15:49:22;102511.81;;;-0.98;100.00
61757;BME280;57225;61.460;24.060;2022-12-01T15:52:11;102496.97;;;-1.07;100.00
61757;BME280;57225;61.460;24.060;2022-12-01T15:54:59;102509.06;;;-1.03;100.00